Time;durP1;ratioP1;P1;durP2;ratioP2;P2;SDS_P1;SDS_P2;PMS_P1;PMS_P2;Temp;Humidity;BMP_temperature;BMP_pressure;BME280_temperature;BME280_humidity;BME280_pressure;Samples;Min_cycle;Max_cycle;Signal;HPM_P1;HPM_P2
2021/10/21 00:02:01;;;;;;;6.22;4.05;;;16.20;99.90;;;;;;5075568;28;20111;-80
2021/10/21 00:04:28;;;;;;;6.45;3.22;;;16.20;99.90;;;;;;5072728;28;20055;-81
2021/10/21 00:06:54;;;;;;;8.55;3.10;;;16.10;99.90;;;;;;5069252;28;20079;-80
2021/10/21 00:09:20;;;;;;;5.47;2.80;;;16.00;99.90;;;;;;5065550;28;20032;-78
2021/10/21 00:11:45;;;;;;;7.10;2.92;;;15.90;99.90;;;;;;5063352;28;20033;-78
2021/10/21 00:14:11;;;;;;;5.22;3.10;;;15.80;99.90;;;;;;5067378;28;20025;-77
2021/10/21 00:16:37;;;;;;;4.93;2.60;;;15.80;99.90;;;;;;5062480;28;20027;-78
2021/10/21 00:19:03;;;;;;;6.32;2.88;;;15.70;99.90;;;;;;5073782;28;20485;-78
2021/10/21 00:21:29;;;;;;;2.85;2.20;;;15.80;99.90;;;;;;5076628;28;20510;-78
2021/10/21 00:23:54;;;;;;;3.25;1.73;;;15.80;99.90;;;;;;5074077;28;20032;-77
2021/10/21 00:26:20;;;;;;;2.55;1.77;;;15.70;99.90;;;;;;5066896;28;20032;-79
2021/10/21 00:28:46;;;;;;;3.28;1.60;;;15.70;99.90;;;;;;5065556;28;20028;-77
2021/10/21 00:31:13;;;;;;;4.82;2.10;;;15.60;99.90;;;;;;5069533;28;20020;-78
2021/10/21 00:33:38;;;;;;;5.63;1.70;;;15.70;99.90;;;;;;5064084;28;20168;-78
2021/10/21 00:36:04;;;;;;;4.82;1.48;;;15.60;99.90;;;;;;5068351;28;20033;-77
2021/10/21 00:38:30;;;;;;;5.40;1.90;;;15.60;99.90;;;;;;5069123;28;20028;-78
2021/10/21 00:40:55;;;;;;;5.35;1.85;;;15.50;99.90;;;;;;5068045;28;20032;-80
2021/10/21 00:43:21;;;;;;;2.72;1.98;;;15.60;99.90;;;;;;5071062;28;20036;-77
2021/10/21 00:45:47;;;;;;;4.57;1.75;;;15.50;99.90;;;;;;5067003;28;20037;-77
2021/10/21 00:48:13;;;;;;;2.75;1.52;;;15.60;99.90;;;;;;5069645;28;20029;-77
2021/10/21 00:50:40;;;;;;;3.55;1.58;;;15.50;99.90;;;;;;5073529;28;20036;-77
2021/10/21 00:53:09;;;;;;;3.70;1.50;;;15.50;99.90;;;;;;5069180;28;20108;-78
2021/10/21 00:55:35;;;;;;;5.25;2.05;;;15.50;99.90;;;;;;5066621;28;20032;-77
2021/10/21 00:58:03;;;;;;;2.33;1.63;;;15.50;99.90;;;;;;5063161;28;20101;-77
2021/10/21 01:00:31;;;;;;;2.88;1.10;;;15.50;99.90;;;;;;5070555;28;20063;-78
2021/10/21 01:02:56;;;;;;;5.50;1.20;;;15.30;99.90;;;;;;5063639;28;20029;-77
2021/10/21 01:05:22;;;;;;;2.90;1.33;;;15.20;99.90;;;;;;5071789;28;20543;-76
2021/10/21 01:07:49;;;;;;;4.20;1.45;;;15.10;99.90;;;;;;5068310;28;20415;-76
2021/10/21 01:10:14;;;;;;;5.70;0.90;;;15.00;99.90;;;;;;5064658;28;20055;-77
2021/10/21 01:12:40;;;;;;;4.05;1.15;;;15.00;99.90;;;;;;5066927;28;20021;-76
2021/10/21 01:15:26;;;;;;;5.65;1.05;;;14.90;99.90;;;;;;5063965;28;20080;-75
2021/10/21 01:17:55;;;;;;;9.55;1.05;;;14.80;99.90;;;;;;5072981;28;20406;-78
2021/10/21 01:20:22;;;;;;;3.10;0.55;;;14.70;99.90;;;;;;5069281;28;20032;-76
2021/10/21 01:22:48;;;;;;;5.63;1.27;;;14.70;99.90;;;;;;5070271;28;20033;-76
2021/10/21 01:25:15;;;;;;;3.15;0.70;;;14.70;99.90;;;;;;5070898;28;20033;-75
2021/10/21 01:27:42;;;;;;;5.60;1.05;;;14.60;99.90;;;;;;5077760;28;20020;-80
2021/10/21 01:30:15;;;;;;;4.30;0.80;;;14.60;99.90;;;;;;5067781;28;20036;-76
2021/10/21 01:32:41;;;;;;;3.38;0.80;;;14.60;99.90;;;;;;5067905;28;20107;-74
2021/10/21 01:35:07;;;;;;;3.40;0.80;;;14.60;99.90;;;;;;5061670;28;20132;-75
2021/10/21 01:37:33;;;;;;;4.53;0.68;;;14.60;99.90;;;;;;5071562;28;20024;-75
2021/10/21 01:39:59;;;;;;;3.78;1.15;;;14.60;99.90;;;;;;5064498;28;20099;-74
2021/10/21 01:42:28;;;;;;;4.63;1.00;;;14.70;99.90;;;;;;5064606;28;20487;-75
2021/10/21 01:44:54;;;;;;;3.95;0.90;;;14.60;99.90;;;;;;5066510;28;20561;-74
2021/10/21 01:47:19;;;;;;;3.15;0.70;;;14.60;99.90;;;;;;5059709;28;20063;-75
2021/10/21 01:49:45;;;;;;;6.03;1.23;;;14.60;99.90;;;;;;5062188;28;20046;-75
2021/10/21 01:52:12;;;;;;;6.82;1.05;;;14.50;99.90;;;;;;5065468;28;20028;-74
2021/10/21 01:54:37;;;;;;;3.85;0.75;;;14.50;99.90;;;;;;5072918;28;20055;-74
2021/10/21 01:57:03;;;;;;;5.22;1.10;;;14.60;99.90;;;;;;5070854;28;20492;-74
2021/10/21 01:59:29;;;;;;;2.45;0.75;;;14.60;99.90;;;;;;5061154;28;20032;-74
2021/10/21 02:01:54;;;;;;;5.45;0.60;;;14.70;99.90;;;;;;5066974;28;20027;-76
2021/10/21 02:04:20;;;;;;;6.70;0.80;;;14.60;99.90;;;;;;5067065;28;20381;-74
2021/10/21 02:06:45;;;;;;;7.30;0.93;;;14.70;99.90;;;;;;5064183;28;20016;-74
2021/10/21 02:09:11;;;;;;;11.23;1.25;;;14.70;99.90;;;;;;5067245;28;20032;-74
2021/10/21 02:11:37;;;;;;;5.32;1.15;;;14.60;99.90;;;;;;5060961;28;20029;-74
2021/10/21 02:14:02;;;;;;;10.77;1.58;;;14.50;99.90;;;;;;5066832;28;20408;-73
2021/10/21 02:16:28;;;;;;;5.97;1.02;;;14.50;99.90;;;;;;5063598;28;20048;-80
2021/10/21 02:18:54;;;;;;;4.22;1.00;;;14.50;99.90;;;;;;5070153;28;20029;-77
2021/10/21 02:21:20;;;;;;;7.63;0.90;;;14.50;99.90;;;;;;5071316;28;20098;-74
2021/10/21 02:23:46;;;;;;;2.17;0.60;;;14.60;99.90;;;;;;5070701;28;20108;-74
2021/10/21 02:26:12;;;;;;;6.78;1.20;;;14.70;99.90;;;;;;5062526;28;20104;-74
2021/10/21 02:28:37;;;;;;;6.47;0.90;;;14.60;99.90;;;;;;5065911;28;20048;-78
2021/10/21 02:31:03;;;;;;;5.20;0.70;;;14.50;99.90;;;;;;5066124;28;20108;-74
2021/10/21 02:33:29;;;;;;;7.20;1.20;;;14.50;99.90;;;;;;5067814;28;20063;-76
2021/10/21 02:35:54;;;;;;;6.32;1.20;;;14.40;99.90;;;;;;5060351;28;20029;-74
2021/10/21 02:38:20;;;;;;;8.13;1.73;;;14.30;99.90;;;;;;5058760;28;20098;-74
2021/10/21 02:40:46;;;;;;;7.78;1.30;;;14.20;99.90;;;;;;5064645;28;20831;-73
2021/10/21 02:43:13;;;;;;;3.70;1.08;;;14.20;99.90;;;;;;5065391;28;20028;-73
2021/10/21 02:45:40;;;;;;;6.30;1.73;;;14.20;99.90;;;;;;5072110;28;20017;-74
2021/10/21 02:48:06;;;;;;;6.95;1.25;;;14.20;99.90;;;;;;5070945;28;20029;-73
2021/10/21 02:50:32;;;;;;;9.45;1.33;;;14.20;99.90;;;;;;5061253;28;20508;-74
2021/10/21 02:52:57;;;;;;;6.20;1.70;;;14.20;99.90;;;;;;5067149;28;20033;-74
2021/10/21 02:55:23;;;;;;;6.25;1.08;;;14.10;99.90;;;;;;5062883;28;20434;-74
2021/10/21 02:57:49;;;;;;;9.38;1.35;;;14.10;99.90;;;;;;5060130;28;20861;-74
2021/10/21 03:00:15;;;;;;;5.55;1.58;;;14.00;99.90;;;;;;5061794;28;20054;-75
2021/10/21 03:02:40;;;;;;;6.13;1.48;;;14.10;99.90;;;;;;5059371;28;20127;-74
2021/10/21 03:05:07;;;;;;;7.90;1.77;;;14.10;99.90;;;;;;5062207;28;20132;-74
2021/10/21 03:07:32;;;;;;;4.85;1.05;;;13.90;99.90;;;;;;5058531;28;20030;-74
2021/10/21 03:09:58;;;;;;;7.00;1.75;;;13.90;99.90;;;;;;5069873;28;20033;-74
2021/10/21 03:12:24;;;;;;;6.82;1.73;;;14.00;99.90;;;;;;5063208;28;20035;-73
2021/10/21 03:14:49;;;;;;;10.07;1.75;;;13.90;99.90;;;;;;5061826;28;20096;-74
2021/10/21 03:17:15;;;;;;;7.07;1.10;;;13.90;99.90;;;;;;5058705;28;20082;-74
2021/10/21 03:19:41;;;;;;;11.45;1.73;;;13.90;99.90;;;;;;5062251;28;20028;-74
2021/10/21 03:22:06;;;;;;;5.50;1.83;;;13.80;99.90;;;;;;5067585;28;20491;-73
2021/10/21 03:24:32;;;;;;;6.53;1.23;;;13.90;99.90;;;;;;5065015;28;20099;-73
2021/10/21 03:26:58;;;;;;;8.27;1.10;;;13.90;99.90;;;;;;5068514;28;20059;-73
2021/10/21 03:29:23;;;;;;;12.30;1.75;;;13.80;99.90;;;;;;5072249;28;20063;-74
2021/10/21 03:31:49;;;;;;;7.18;1.35;;;13.80;99.90;;;;;;5059363;28;20416;-73
2021/10/21 03:34:15;;;;;;;6.22;1.50;;;13.90;99.90;;;;;;5062826;28;20058;-73
2021/10/21 03:36:41;;;;;;;11.38;1.88;;;13.70;99.90;;;;;;5061515;28;20024;-74
2021/10/21 03:39:06;;;;;;;6.55;1.60;;;13.70;99.90;;;;;;5055229;28;20434;-75
2021/10/21 03:41:32;;;;;;;6.55;1.70;;;13.60;99.90;;;;;;5066019;28;20029;-74
2021/10/21 03:43:58;;;;;;;6.13;1.20;;;13.50;99.90;;;;;;5063128;28;20046;-73
2021/10/21 03:46:24;;;;;;;4.63;1.75;;;13.60;99.90;;;;;;5063730;28;20108;-75
2021/10/21 03:48:49;;;;;;;14.25;2.00;;;13.70;99.90;;;;;;5072416;28;20032;-73
2021/10/21 03:51:15;;;;;;;5.28;1.00;;;13.70;99.90;;;;;;5075335;28;20480;-73
2021/10/21 03:53:42;;;;;;;7.22;1.10;;;13.70;99.90;;;;;;5063989;28;20021;-74
2021/10/21 03:56:09;;;;;;;13.65;2.13;;;13.70;99.90;;;;;;5058243;28;20104;-74
2021/10/21 03:58:36;;;;;;;9.73;1.58;;;13.70;99.90;;;;;;5065363;28;20021;-75
2021/10/21 04:01:02;;;;;;;5.20;0.68;;;13.60;99.90;;;;;;5064907;28;20017;-74
2021/10/21 04:03:28;;;;;;;6.07;1.05;;;13.60;99.90;;;;;;5065430;28;20021;-74
2021/10/21 04:05:53;;;;;;;3.95;1.42;;;13.60;99.90;;;;;;5066814;28;20078;-74
2021/10/21 04:08:19;;;;;;;8.73;1.05;;;13.60;99.90;;;;;;5057984;28;20036;-74
2021/10/21 04:10:45;;;;;;;6.53;1.00;;;13.60;99.90;;;;;;5066766;28;20071;-74
2021/10/21 04:13:11;;;;;;;7.85;1.20;;;13.50;99.90;;;;;;5066115;28;20074;-74
2021/10/21 04:15:39;;;;;;;8.13;1.10;;;13.50;99.90;;;;;;5065388;28;20025;-76
2021/10/21 04:18:05;;;;;;;4.22;0.88;;;13.50;99.90;;;;;;5066876;28;20103;-74
2021/10/21 04:20:31;;;;;;;8.18;1.85;;;13.50;99.90;;;;;;5067207;28;20120;-75
2021/10/21 04:22:56;;;;;;;5.75;1.25;;;13.40;99.90;;;;;;5062112;28;20021;-74
2021/10/21 04:25:22;;;;;;;5.05;0.98;;;13.40;99.90;;;;;;5065797;28;20025;-73
2021/10/21 04:27:48;;;;;;;2.70;0.80;;;13.40;99.90;;;;;;5070606;28;20028;-74
2021/10/21 04:30:13;;;;;;;2.17;0.60;;;13.40;99.90;;;;;;5069935;28;20503;-77
2021/10/21 04:32:40;;;;;;;6.35;0.57;;;13.50;99.90;;;;;;5066058;28;20021;-78
2021/10/21 04:35:07;;;;;;;6.47;0.80;;;13.40;99.90;;;;;;5081499;28;20035;-76
2021/10/21 04:37:32;;;;;;;2.45;0.60;;;13.40;99.90;;;;;;5068388;28;20052;-75
2021/10/21 04:39:58;;;;;;;4.57;1.05;;;13.30;99.90;;;;;;5076371;28;20138;-75
2021/10/21 04:42:24;;;;;;;1.88;0.75;;;13.30;99.90;;;;;;5073842;28;20028;-74
2021/10/21 04:44:49;;;;;;;2.63;0.50;;;13.30;99.90;;;;;;5066345;28;20035;-74
2021/10/21 04:47:15;;;;;;;1.75;0.88;;;13.30;99.90;;;;;;5069426;28;20358;-74
2021/10/21 04:49:44;;;;;;;2.95;0.90;;;13.20;99.90;;;;;;5062738;28;20035;-76
2021/10/21 04:52:09;;;;;;;8.50;1.30;;;13.20;99.90;;;;;;5069130;28;20521;-73
2021/10/21 04:54:35;;;;;;;2.00;1.10;;;13.30;99.90;;;;;;5058576;28;20111;-73
2021/10/21 04:57:01;;;;;;;3.10;0.90;;;13.30;99.90;;;;;;5071441;28;20061;-73
2021/10/21 04:59:26;;;;;;;4.93;1.27;;;13.30;99.90;;;;;;5067156;28;20435;-74
2021/10/21 05:01:52;;;;;;;8.43;1.48;;;13.20;99.90;;;;;;5066953;28;20116;-76
2021/10/21 05:04:17;;;;;;;2.55;1.27;;;13.20;99.90;;;;;;5067745;28;20033;-75
2021/10/21 05:06:43;;;;;;;5.25;0.98;;;13.30;99.90;;;;;;5059412;28;20028;-75
2021/10/21 05:09:09;;;;;;;6.53;1.30;;;13.20;99.90;;;;;;5071509;28;20508;-75
2021/10/21 05:11:34;;;;;;;5.13;1.23;;;13.10;99.90;;;;;;5061949;28;20078;-74
2021/10/21 05:14:00;;;;;;;5.47;1.00;;;13.00;99.90;;;;;;5063220;28;20055;-75
2021/10/21 05:16:26;;;;;;;3.95;0.98;;;12.90;99.90;;;;;;5067790;28;20117;-74
2021/10/21 05:18:51;;;;;;;8.90;1.00;;;12.90;99.90;;;;;;5069091;28;20473;-76
2021/10/21 05:21:17;;;;;;;5.00;0.95;;;12.70;99.90;;;;;;5065174;28;20064;-76
2021/10/21 05:23:43;;;;;;;7.28;1.35;;;12.70;99.90;;;;;;5064119;28;20508;-77
2021/10/21 05:26:09;;;;;;;4.75;0.85;;;12.60;99.90;;;;;;5061543;28;20047;-76
2021/10/21 05:28:34;;;;;;;10.50;1.30;;;12.50;99.90;;;;;;5067045;28;20125;-76
2021/10/21 05:31:01;;;;;;;7.10;1.48;;;12.50;99.90;;;;;;5063802;28;20076;-77
2021/10/21 05:33:29;;;;;;;5.15;1.17;;;12.30;99.90;;;;;;5066218;28;20110;-76
2021/10/21 05:35:54;;;;;;;8.05;1.85;;;12.20;99.90;;;;;;5063381;28;20110;-79
2021/10/21 05:38:20;;;;;;;8.73;1.30;;;12.40;99.90;;;;;;5069518;28;20129;-77
2021/10/21 05:40:46;;;;;;;7.15;1.63;;;12.50;99.90;;;;;;5067166;28;20037;-78
2021/10/21 05:43:12;;;;;;;9.18;2.03;;;12.30;99.90;;;;;;5067653;28;20058;-77
2021/10/21 05:45:38;;;;;;;8.10;1.52;;;12.40;99.90;;;;;;5060357;28;20056;-77
2021/10/21 05:48:04;;;;;;;11.60;2.13;;;12.40;99.90;;;;;;5064805;28;20079;-77
2021/10/21 05:50:29;;;;;;;16.65;2.55;;;12.40;99.90;;;;;;5066510;28;20052;-77
2021/10/21 05:52:55;;;;;;;13.90;2.70;;;12.40;99.90;;;;;;5067412;28;20420;-75
2021/10/21 05:55:21;;;;;;;14.85;2.65;;;12.50;99.90;;;;;;5062449;28;20123;-75
2021/10/21 05:57:46;;;;;;;16.83;2.92;;;12.50;99.90;;;;;;5066005;28;20024;-75
2021/10/21 06:00:13;;;;;;;18.70;3.50;;;12.50;99.90;;;;;;5067828;28;20036;-78
2021/10/21 06:02:39;;;;;;;11.00;2.33;;;12.50;99.90;;;;;;5070655;28;20082;-78
2021/10/21 06:05:05;;;;;;;12.98;2.60;;;12.40;99.90;;;;;;5070557;28;20465;-77
2021/10/21 06:07:31;;;;;;;13.43;2.00;;;12.20;99.90;;;;;;5063570;28;20020;-77
2021/10/21 06:09:58;;;;;;;14.57;2.88;;;12.20;99.90;;;;;;5061109;28;20108;-76
2021/10/21 06:12:24;;;;;;;10.40;2.17;;;12.30;99.90;;;;;;5068931;28;20077;-76
2021/10/21 06:14:51;;;;;;;12.90;2.33;;;12.30;99.90;;;;;;5058734;28;20021;-77
2021/10/21 06:17:17;;;;;;;12.23;2.70;;;12.20;99.90;;;;;;5057463;28;20024;-78
2021/10/21 06:19:43;;;;;;;13.75;2.70;;;12.20;99.90;;;;;;5069940;28;20068;-78
2021/10/21 06:22:11;;;;;;;13.45;2.47;;;12.30;99.90;;;;;;5065298;28;20055;-77
2021/10/21 06:24:37;;;;;;;13.02;2.03;;;12.20;99.90;;;;;;5065893;28;20052;-77
2021/10/21 06:27:02;;;;;;;12.63;2.50;;;12.10;99.90;;;;;;5067162;28;20488;-76
2021/10/21 06:29:28;;;;;;;10.95;1.98;;;12.00;99.90;;;;;;5069530;28;20092;-76
2021/10/21 06:31:54;;;;;;;12.88;2.58;;;12.00;99.90;;;;;;5058152;28;20461;-78
2021/10/21 06:34:20;;;;;;;10.38;2.38;;;12.00;99.90;;;;;;5063988;28;20060;-77
2021/10/21 06:36:47;;;;;;;6.90;1.40;;;12.00;99.90;;;;;;5071440;28;20462;-77
2021/10/21 06:39:12;;;;;;;8.75;2.00;;;12.00;99.90;;;;;;5064714;28;20037;-78
2021/10/21 06:41:38;;;;;;;6.63;1.30;;;11.90;99.90;;;;;;5058414;28;20021;-76
2021/10/21 06:44:06;;;;;;;8.73;1.70;;;11.90;99.90;;;;;;5070864;28;20048;-77
2021/10/21 06:46:32;;;;;;;8.05;1.67;;;11.90;99.90;;;;;;5063279;28;20021;-76
2021/10/21 06:48:58;;;;;;;12.35;2.25;;;12.00;99.90;;;;;;5070218;28;20091;-79
2021/10/21 06:51:25;;;;;;;6.05;1.38;;;12.00;99.90;;;;;;5060023;28;20021;-75
2021/10/21 06:53:51;;;;;;;7.07;1.42;;;12.10;99.90;;;;;;5061501;28;20029;-74
2021/10/21 06:56:16;;;;;;;5.53;1.67;;;12.20;99.90;;;;;;5064260;28;20077;-75
2021/10/21 06:58:42;;;;;;;7.70;1.33;;;12.30;99.90;;;;;;5061269;28;20400;-74
2021/10/21 07:01:08;;;;;;;8.00;1.85;;;12.40;99.90;;;;;;5068416;28;20025;-75
2021/10/21 07:03:33;;;;;;;8.43;2.13;;;12.30;99.90;;;;;;5063710;28;20029;-75
2021/10/21 07:05:59;;;;;;;8.40;2.17;;;12.40;99.90;;;;;;5058428;28;20028;-76
2021/10/21 07:08:26;;;;;;;15.35;2.45;;;12.40;99.90;;;;;;5066116;28;20024;-76
2021/10/21 07:10:52;;;;;;;18.17;2.72;;;12.50;99.90;;;;;;5066933;28;20028;-75
2021/10/21 07:13:19;;;;;;;14.85;2.47;;;12.50;99.90;;;;;;5058707;28;20059;-75
2021/10/21 07:15:44;;;;;;;11.10;3.28;;;12.50;99.90;;;;;;5062575;28;20537;-76
2021/10/21 07:18:11;;;;;;;19.02;2.75;;;12.50;99.90;;;;;;5061593;28;20124;-79
2021/10/21 07:20:36;;;;;;;13.77;2.30;;;12.50;99.90;;;;;;5065751;28;20102;-75
2021/10/21 07:23:02;;;;;;;8.50;2.63;;;12.40;99.90;;;;;;5060571;28;20473;-76
2021/10/21 07:25:28;;;;;;;13.75;2.35;;;12.50;99.90;;;;;;5056994;28;20366;-77
2021/10/21 07:27:56;;;;;;;10.68;3.05;;;12.50;99.90;;;;;;5062375;28;20024;-76
2021/10/21 07:30:22;;;;;;;12.93;2.50;;;12.50;99.90;;;;;;5059388;28;20031;-76
2021/10/21 07:32:48;;;;;;;15.73;3.05;;;12.60;99.90;;;;;;5063948;28;20040;-76
2021/10/21 07:35:14;;;;;;;14.60;3.20;;;12.60;99.90;;;;;;5064118;28;20032;-76
2021/10/21 07:37:40;;;;;;;12.90;2.95;;;12.60;99.90;;;;;;5064429;28;20271;-75
2021/10/21 07:40:07;;;;;;;15.60;3.88;;;12.60;99.90;;;;;;5070602;28;20488;-76
2021/10/21 07:42:34;;;;;;;13.00;2.80;;;12.50;99.90;;;;;;5061253;28;20469;-76
2021/10/21 07:45:00;;;;;;;10.30;3.00;;;12.60;99.90;;;;;;5063364;28;20060;-76
2021/10/21 07:47:26;;;;;;;16.02;3.42;;;12.50;99.90;;;;;;5064889;28;20017;-76
2021/10/21 07:49:52;;;;;;;14.80;2.88;;;12.50;99.90;;;;;;5061270;28;20137;-76
2021/10/21 07:52:20;;;;;;;22.05;4.30;;;12.50;99.90;;;;;;5056390;28;20025;-75
2021/10/21 07:54:47;;;;;;;10.70;2.83;;;12.60;99.90;;;;;;5065924;28;20016;-84
2021/10/21 07:57:13;;;;;;;13.65;2.80;;;12.60;99.90;;;;;;5061195;28;20068;-77
2021/10/21 07:59:39;;;;;;;12.57;3.90;;;12.60;99.90;;;;;;5062093;28;20028;-77
2021/10/21 08:02:05;;;;;;;22.23;4.53;;;12.60;99.90;;;;;;5058893;28;20035;-77
2021/10/21 08:04:34;;;;;;;18.02;3.40;;;12.70;99.90;;;;;;5057485;28;20017;-77
2021/10/21 08:07:02;;;;;;;13.07;2.53;;;12.70;99.90;;;;;;5067729;28;20020;-77
2021/10/21 08:09:30;;;;;;;16.05;2.28;;;12.70;99.90;;;;;;5068045;28;20025;-79
2021/10/21 08:12:00;;;;;;;13.30;2.70;;;12.70;99.90;;;;;;5067681;28;20016;-77
2021/10/21 08:14:26;;;;;;;14.02;3.25;;;12.70;99.90;;;;;;5071058;28;20032;-76
2021/10/21 08:16:52;;;;;;;13.70;3.67;;;12.80;99.90;;;;;;5065252;28;20028;-75
2021/10/21 08:19:18;;;;;;;17.45;3.42;;;12.80;99.90;;;;;;5069651;28;20025;-76
2021/10/21 08:21:47;;;;;;;13.10;3.28;;;12.90;99.90;;;;;;5068057;28;20035;-76
2021/10/21 08:24:14;;;;;;;18.70;3.38;;;12.80;99.90;;;;;;5070535;28;20025;-78
2021/10/21 08:26:41;;;;;;;16.00;3.33;;;12.90;99.90;;;;;;5067409;28;20035;-75
2021/10/21 08:29:08;;;;;;;13.23;2.88;;;12.80;99.90;;;;;;5064103;28;20386;-76
2021/10/21 08:31:34;;;;;;;11.50;3.60;;;12.80;99.90;;;;;;5066071;28;20033;-75
2021/10/21 08:34:00;;;;;;;12.98;3.90;;;12.80;99.90;;;;;;5068492;28;20024;-75
2021/10/21 08:36:25;;;;;;;11.18;2.50;;;12.90;99.90;;;;;;5068077;28;20021;-76
2021/10/21 08:38:52;;;;;;;8.73;2.83;;;12.90;99.90;;;;;;5064700;28;20028;-74
2021/10/21 08:41:20;;;;;;;10.45;2.97;;;13.00;99.90;;;;;;5066372;28;20112;-76
2021/10/21 08:43:47;;;;;;;13.90;3.15;;;13.00;99.90;;;;;;5065048;28;20171;-76
2021/10/21 08:46:15;;;;;;;14.73;2.85;;;12.80;99.90;;;;;;5057558;28;20028;-76
2021/10/21 08:48:42;;;;;;;12.05;2.85;;;12.80;99.90;;;;;;5069419;28;20047;-76
2021/10/21 08:51:09;;;;;;;17.85;3.45;;;12.80;99.90;;;;;;5065135;28;20020;-76
2021/10/21 08:53:35;;;;;;;16.83;3.28;;;12.90;99.90;;;;;;5068295;28;20556;-76
2021/10/21 08:56:01;;;;;;;15.40;2.78;;;12.90;99.90;;;;;;5065881;28;20025;-76
2021/10/21 08:58:27;;;;;;;10.73;2.78;;;12.90;99.90;;;;;;5071778;28;20025;-77
2021/10/21 09:01:08;;;;;;;10.98;2.72;;;13.00;99.90;;;;;;5061927;28;20090;-77
2021/10/21 09:04:03;;;;;;;12.40;2.83;;;13.00;99.90;;;;;;5068529;28;20480;-78
2021/10/21 09:09:01;;;;;;;9.02;1.90;;;13.00;99.90;;;;;;5069058;28;20128;-77
2021/10/21 09:11:26;;;;;;;8.27;2.15;;;13.00;99.90;;;;;;5066447;28;20033;-76
2021/10/21 09:14:10;;;;;;;12.90;2.15;;;13.10;99.90;;;;;;5070599;28;20028;-77
2021/10/21 09:16:36;;;;;;;8.82;2.08;;;13.00;99.90;;;;;;5061525;28;20096;-79
2021/10/21 09:19:12;;;;;;;9.88;2.47;;;13.10;99.90;;;;;;5061422;28;20033;-77
2021/10/21 09:21:41;;;;;;;9.68;1.77;;;13.10;99.90;;;;;;5064462;28;20573;-78
2021/10/21 09:24:35;;;;;;;6.57;1.75;;;13.10;99.90;;;;;;5066029;28;20388;-78
2021/10/21 09:27:04;;;;;;;11.73;2.70;;;13.10;99.90;;;;;;5066883;28;20031;-77
2021/10/21 09:29:31;;;;;;;8.35;1.67;;;13.10;99.90;;;;;;5062287;28;20108;-77
2021/10/21 09:32:11;;;;;;;10.20;1.85;;;13.00;99.90;;;;;;5067669;28;20099;-77
2021/10/21 09:34:51;;;;;;;10.45;2.30;;;13.20;99.90;;;;;;5072177;28;20397;-76
2021/10/21 09:37:31;;;;;;;8.88;2.45;;;13.30;99.90;;;;;;5063565;28;20012;-78
2021/10/21 09:40:01;;;;;;;10.38;1.90;;;13.20;99.90;;;;;;5073657;28;20105;-76
2021/10/21 09:42:36;;;;;;;9.60;2.40;;;13.20;99.90;;;;;;5068169;28;20031;-79
2021/10/21 09:45:20;;;;;;;6.70;2.03;;;13.10;99.90;;;;;;5068677;28;20032;-78
2021/10/21 09:47:45;;;;;;;9.80;2.13;;;13.20;99.90;;;;;;5065044;28;20010;-75
2021/10/21 09:50:37;;;;;;;8.70;2.03;;;13.20;99.90;;;;;;5059695;28;20032;-76
2021/10/21 09:53:18;;;;;;;7.60;1.70;;;13.30;99.90;;;;;;5068478;28;20362;-77
2021/10/21 09:55:46;;;;;;;8.90;1.65;;;13.20;99.90;;;;;;5061668;28;20024;-79
2021/10/21 09:58:13;;;;;;;8.05;1.35;;;13.20;99.90;;;;;;5064095;28;20032;-75
2021/10/21 10:00:41;;;;;;;7.15;1.45;;;13.30;99.90;;;;;;5068188;28;20024;-77
2021/10/21 10:03:14;;;;;;;7.63;1.52;;;13.20;99.90;;;;;;5062604;28;20024;-76
2021/10/21 10:05:40;;;;;;;;;;;13.20;99.90;;;;;;5065439;28;20021;-77
2021/10/21 10:08:09;;;;;;;5.55;1.50;;;13.30;99.90;;;;;;5071657;28;20455;-78
2021/10/21 10:10:42;;;;;;;7.50;2.00;;;13.30;99.90;;;;;;5066632;28;20123;-78
2021/10/21 10:13:09;;;;;;;6.32;1.85;;;13.40;99.90;;;;;;5061827;28;20025;-78
2021/10/21 10:15:35;;;;;;;6.90;1.65;;;13.40;99.90;;;;;;5061923;28;20071;-77
2021/10/21 10:18:06;;;;;;;7.38;1.80;;;13.50;99.90;;;;;;5069431;28;20036;-77
2021/10/21 10:20:32;;;;;;;13.55;2.45;;;13.50;99.90;;;;;;5062481;28;20109;-77
2021/10/21 10:23:01;;;;;;;5.28;2.00;;;13.80;99.90;;;;;;5066347;28;20060;-77
2021/10/21 10:25:27;;;;;;;8.90;2.13;;;13.80;99.90;;;;;;5061638;28;20027;-78
2021/10/21 10:27:59;;;;;;;6.50;1.90;;;13.70;99.90;;;;;;5067715;28;20029;-78
2021/10/21 10:30:46;;;;;;;6.88;1.85;;;13.80;99.90;;;;;;5074124;28;20020;-77
2021/10/21 10:33:13;;;;;;;4.70;1.67;;;13.70;99.90;;;;;;5057656;28;20060;-75
2021/10/21 10:35:41;;;;;;;5.47;2.13;;;13.80;99.90;;;;;;5063241;28;20028;-76
2021/10/21 10:38:09;;;;;;;7.68;1.52;;;13.80;99.90;;;;;;5067883;28;20032;-78
2021/10/21 10:40:40;;;;;;;5.72;1.75;;;14.00;99.90;;;;;;5065210;28;20052;-77
2021/10/21 10:43:06;;;;;;;4.55;1.17;;;14.10;99.90;;;;;;5067141;28;20024;-76
2021/10/21 10:45:38;;;;;;;8.02;1.30;;;14.10;99.90;;;;;;5067676;28;20028;-77
2021/10/21 10:48:04;;;;;;;6.80;1.60;;;14.10;99.90;;;;;;5062230;28;20070;-75
2021/10/21 10:50:30;;;;;;;5.07;1.65;;;14.20;99.90;;;;;;5066783;28;20028;-76
2021/10/21 10:53:07;;;;;;;6.10;1.65;;;14.30;99.90;;;;;;5060354;28;20082;-76
2021/10/21 10:55:45;;;;;;;6.75;1.73;;;14.30;99.90;;;;;;5070892;28;20031;-76
2021/10/21 10:58:24;;;;;;;4.38;1.38;;;14.40;99.90;;;;;;5059446;28;20124;-77
2021/10/21 11:00:51;;;;;;;4.60;1.67;;;14.70;99.90;;;;;;5062221;28;20400;-77
2021/10/21 11:03:35;;;;;;;4.55;1.42;;;14.70;99.90;;;;;;5057239;28;20031;-76
2021/10/21 11:06:16;;;;;;;6.28;1.50;;;14.80;99.90;;;;;;5061992;28;20025;-76
2021/10/21 11:08:48;;;;;;;4.47;1.85;;;14.60;99.90;;;;;;5065586;28;20025;-76
2021/10/21 11:11:35;;;;;;;7.35;1.58;;;14.60;99.90;;;;;;5061764;28;20515;-76
2021/10/21 11:14:08;;;;;;;6.10;1.80;;;14.50;99.90;;;;;;5067895;28;20052;-80
2021/10/21 11:16:39;;;;;;;8.05;1.52;;;14.30;99.90;;;;;;5068602;28;20025;-76
2021/10/21 11:19:05;;;;;;;9.65;1.73;;;14.40;99.90;;;;;;5068667;28;20036;-76
2021/10/21 11:21:46;;;;;;;5.53;0.82;;;14.30;99.90;;;;;;5061920;28;20073;-75
2021/10/21 11:24:45;;;;;;;2.67;0.55;;;14.00;99.90;;;;;;5061739;28;20143;-75
2021/10/21 11:27:12;;;;;;;4.55;0.63;;;13.60;99.90;;;;;;5056387;28;20476;-77
2021/10/21 11:29:38;;;;;;;3.55;1.05;;;13.30;99.90;;;;;;5063315;28;20032;-78
2021/10/21 11:32:08;;;;;;;4.47;1.00;;;12.90;99.90;;;;;;5061224;28;20103;-77
2021/10/21 11:34:34;;;;;;;1.85;0.52;;;12.90;99.90;;;;;;5064144;28;20028;-81
2021/10/21 11:37:00;;;;;;;2.88;1.10;;;13.00;99.90;;;;;;5058379;28;20033;-77
2021/10/21 11:39:33;;;;;;;4.40;1.20;;;12.90;99.90;;;;;;5064207;28;20476;-78
2021/10/21 11:42:04;;;;;;;3.05;0.70;;;12.90;99.90;;;;;;5068259;28;20021;-77
2021/10/21 11:44:29;;;;;;;5.25;1.00;;;12.80;99.90;;;;;;5066336;28;20025;-77
2021/10/21 11:47:00;;;;;;;1.30;0.63;;;12.90;99.90;;;;;;5066523;28;20025;-77
2021/10/21 11:49:29;;;;;;;8.70;1.13;;;13.00;99.90;;;;;;5059142;28;20031;-76
2021/10/21 11:52:04;;;;;;;4.90;1.20;;;13.00;99.90;;;;;;5061242;28;20119;-77
2021/10/21 11:54:29;;;;;;;5.53;1.60;;;12.90;99.90;;;;;;5061456;28;20484;-76
2021/10/21 11:56:56;;;;;;;6.10;1.70;;;12.90;99.90;;;;;;5065923;28;20050;-77
2021/10/21 11:59:41;;;;;;;4.15;1.40;;;12.90;99.90;;;;;;5063758;28;20029;-76
2021/10/21 12:02:14;;;;;;;2.75;1.08;;;12.90;99.90;;;;;;5070486;28;20030;-77
2021/10/21 12:04:44;;;;;;;5.32;1.50;;;12.90;99.90;;;;;;5060926;28;20147;-85
2021/10/21 12:07:11;;;;;;;4.00;1.23;;;13.00;99.90;;;;;;5067715;28;20111;-77
2021/10/21 12:09:38;;;;;;;3.78;0.95;;;13.00;99.90;;;;;;5060674;28;20033;-86
2021/10/21 12:12:06;;;;;;;3.38;0.95;;;13.00;99.90;;;;;;5066578;28;20159;-80
2021/10/21 12:14:37;;;;;;;6.05;1.42;;;13.00;99.90;;;;;;5066823;28;20076;-76
2021/10/21 12:17:07;;;;;;;7.75;1.63;;;13.10;99.90;;;;;;5065295;28;20028;-76
2021/10/21 12:19:32;;;;;;;6.70;1.75;;;13.20;99.90;;;;;;5059577;28;20038;-79
2021/10/21 12:22:20;;;;;;;10.95;1.80;;;13.20;99.90;;;;;;5064805;28;20100;-78
2021/10/21 12:24:47;;;;;;;8.10;2.00;;;13.30;99.90;;;;;;5064036;28;20043;-80
2021/10/21 12:27:39;;;;;;;8.93;1.40;;;13.40;99.90;;;;;;5064270;28;20032;-77
2021/10/21 12:30:06;;;;;;;9.07;1.65;;;13.40;99.90;;;;;;5056290;28;20041;-75
2021/10/21 12:32:33;;;;;;;6.28;1.65;;;13.40;99.90;;;;;;5063082;28;20673;-79
2021/10/21 12:35:09;;;;;;;6.25;2.25;;;13.30;99.90;;;;;;5060028;28;20036;-77
2021/10/21 12:37:41;;;;;;;6.13;1.90;;;13.30;99.90;;;;;;5067214;28;20029;-77
2021/10/21 12:40:11;;;;;;;7.63;1.75;;;13.40;99.90;;;;;;5070052;28;20393;-80
2021/10/21 12:42:37;;;;;;;9.63;2.45;;;13.40;99.90;;;;;;5063619;28;20028;-82
2021/10/21 12:45:03;;;;;;;10.10;1.73;;;13.30;99.90;;;;;;5070354;28;20024;-76
2021/10/21 12:47:37;;;;;;;7.35;1.90;;;13.40;99.90;;;;;;5058651;28;20082;-77
2021/10/21 12:50:08;;;;;;;8.75;1.88;;;13.30;99.90;;;;;;5067992;28;20029;-77
2021/10/21 12:52:39;;;;;;;7.13;1.63;;;13.20;99.90;;;;;;5067511;28;20103;-76